createdAt,value
2023-03-27T00:00:00.348Z,12.57
2023-03-27T00:00:25.624Z,12.57
2023-03-27T00:00:50.786Z,12.59
2023-03-27T00:01:13.146Z,12.61
2023-03-27T00:01:35.174Z,12.60
2023-03-27T00:01:57.275Z,12.59
2023-03-27T00:02:20.228Z,12.65
2023-03-27T00:02:43.297Z,12.68
2023-03-27T00:03:06.274Z,12.64
2023-03-27T00:03:29.638Z,12.68
2023-03-27T00:03:53.369Z,12.67
2023-03-27T00:04:17.931Z,12.67
2023-03-27T00:04:42.357Z,12.61
2023-03-27T00:05:05.401Z,12.70
2023-03-27T00:05:27.662Z,12.59
2023-03-27T00:05:49.355Z,12.73
2023-03-27T00:06:16.454Z,12.72
2023-03-27T00:06:38.101Z,12.71
2023-03-27T00:06:59.727Z,12.67
2023-03-27T00:07:21.954Z,12.67
2023-03-27T00:07:44.481Z,12.68
2023-03-27T00:08:09.387Z,12.51
2023-03-27T00:08:31.577Z,12.66
2023-03-27T00:08:53.553Z,12.69
2023-03-27T00:09:16.891Z,12.71
2023-03-27T00:09:39.126Z,12.71
2023-03-27T00:10:01.695Z,12.70
2023-03-27T00:10:23.971Z,12.69
2023-03-27T00:10:48.016Z,12.66
2023-03-27T00:11:10.032Z,12.61
2023-03-27T00:11:33.060Z,12.53
2023-03-27T00:11:56.136Z,12.55
2023-03-27T00:12:17.744Z,12.51
2023-03-27T00:12:39.315Z,12.53
2023-03-27T00:13:03.522Z,12.53
2023-03-27T00:13:25.595Z,12.55
2023-03-27T00:13:50.788Z,12.59
2023-03-27T00:14:13.083Z,12.63
2023-03-27T00:14:36.291Z,12.61
2023-03-27T00:14:58.882Z,12.64
2023-03-27T00:15:21.798Z,12.60
2023-03-27T00:15:43.411Z,12.64
2023-03-27T00:16:06.140Z,12.66
2023-03-27T00:16:28.785Z,12.67
2023-03-27T00:16:51.083Z,12.60
2023-03-27T00:17:13.466Z,12.68
2023-03-27T00:17:35.168Z,12.69
2023-03-27T00:17:58.617Z,12.66
2023-03-27T00:18:21.719Z,12.67
2023-03-27T00:18:44.905Z,12.65
2023-03-27T00:19:06.575Z,12.68
2023-03-27T00:19:28.265Z,12.69
2023-03-27T00:19:52.150Z,12.63
2023-03-27T00:20:15.007Z,12.69
2023-03-27T00:20:37.422Z,12.68
2023-03-27T00:21:00.833Z,12.66
2023-03-27T00:21:24.208Z,12.55
2023-03-27T00:21:46.041Z,12.44
2023-03-27T00:22:07.667Z,12.57
2023-03-27T00:22:30.043Z,12.57
2023-03-27T00:22:56.446Z,12.56
2023-03-27T00:23:19.962Z,12.54
2023-03-27T00:23:42.278Z,12.57
2023-03-27T00:24:04.168Z,12.57
2023-03-27T00:24:27.099Z,12.61
2023-03-27T00:24:48.763Z,12.64
2023-03-27T00:25:12.430Z,12.64
2023-03-27T00:25:35.138Z,12.68
2023-03-27T00:25:58.845Z,12.69
2023-03-27T00:26:22.051Z,12.60
2023-03-27T00:27:25.057Z,12.59
2023-03-27T00:27:47.202Z,12.60
2023-03-27T00:28:08.895Z,12.64
2023-03-27T00:28:31.304Z,12.65
2023-03-27T00:28:54.725Z,12.67
2023-03-27T00:29:16.820Z,12.67
2023-03-27T00:29:39.634Z,12.62
2023-03-27T00:30:01.413Z,12.65
2023-03-27T00:30:23.410Z,12.58
2023-03-27T00:30:46.473Z,12.63
2023-03-27T00:31:11.367Z,12.57
2023-03-27T00:31:33.458Z,12.54
2023-03-27T00:31:55.126Z,12.55
2023-03-27T00:32:18.014Z,12.53
2023-03-27T00:32:39.681Z,12.51
2023-03-27T00:33:01.969Z,12.51
2023-03-27T00:33:24.937Z,12.53
2023-03-27T00:33:47.495Z,12.54
2023-03-27T00:34:10.448Z,12.53
2023-03-27T00:34:32.144Z,12.53
2023-03-27T00:34:55.110Z,12.54
2023-03-27T00:35:16.857Z,12.52
2023-03-27T00:35:39.755Z,12.39
2023-03-27T00:36:01.438Z,12.40
2023-03-27T00:36:23.125Z,12.43
2023-03-27T00:36:48.236Z,12.43
2023-03-27T00:37:09.939Z,12.45
2023-03-27T00:37:33.085Z,12.47
2023-03-27T00:37:54.808Z,12.46
2023-03-27T00:38:18.368Z,12.48
2023-03-27T00:38:40.135Z,12.46
2023-03-27T00:39:01.949Z,12.54
2023-03-27T00:39:24.801Z,12.56
2023-03-27T00:39:49.930Z,12.56
2023-03-27T00:40:17.602Z,12.57
2023-03-27T00:40:40.087Z,12.58
2023-03-27T00:41:03.090Z,12.59
2023-03-27T00:41:24.783Z,12.51
2023-03-27T00:41:48.625Z,12.57
2023-03-27T00:42:14.396Z,12.58
2023-03-27T00:42:36.357Z,12.58
2023-03-27T00:42:59.242Z,12.57
2023-03-27T00:43:23.074Z,12.56
2023-03-27T00:43:44.796Z,12.55
2023-03-27T00:44:22.893Z,12.55
2023-03-27T00:44:44.704Z,12.53
2023-03-27T00:45:10.629Z,12.51
2023-03-27T00:45:33.781Z,12.50
2023-03-27T00:46:01.220Z,12.50
2023-03-27T00:46:34.085Z,12.49
2023-03-27T00:46:57.110Z,12.50
2023-03-27T00:47:25.754Z,12.48
2023-03-27T00:47:54.063Z,12.46
2023-03-27T00:48:16.681Z,12.45
2023-03-27T00:48:38.325Z,12.33
2023-03-27T00:49:03.453Z,12.37
2023-03-27T00:49:29.518Z,12.38
2023-03-27T00:49:52.438Z,12.39
2023-03-27T00:50:19.363Z,12.42
2023-03-27T00:50:44.861Z,12.40
2023-03-27T00:51:07.176Z,12.39
2023-03-27T00:51:29.599Z,12.44
2023-03-27T00:51:53.394Z,12.25
2023-03-27T00:52:16.843Z,12.46
2023-03-27T00:52:41.647Z,12.45
2023-03-27T00:53:07.870Z,12.39
2023-03-27T00:53:30.163Z,12.42
2023-03-27T00:53:53.823Z,12.44
2023-03-27T00:54:21.869Z,12.46
2023-03-27T00:54:46.668Z,12.44
2023-03-27T00:55:14.160Z,12.44
2023-03-27T00:55:42.367Z,12.39
2023-03-27T00:56:07.603Z,12.40
2023-03-27T00:56:30.567Z,12.28
2023-03-27T00:56:53.559Z,12.38
2023-03-27T00:57:21.886Z,12.34
2023-03-27T00:57:46.601Z,12.36
2023-03-27T00:58:13.712Z,12.30
2023-03-27T00:58:40.619Z,12.32
2023-03-27T00:59:07.230Z,12.27
2023-03-27T00:59:32.157Z,12.31
2023-03-27T00:59:55.779Z,12.30
2023-03-27T01:00:18.935Z,12.19
2023-03-27T01:00:41.208Z,12.29
2023-03-27T01:01:05.325Z,12.29
2023-03-27T01:01:29.799Z,12.26
2023-03-27T01:01:51.806Z,12.30
2023-03-27T01:02:13.853Z,12.29
2023-03-27T01:02:36.693Z,12.28
2023-03-27T01:02:59.515Z,12.22
2023-03-27T01:03:25.398Z,12.21
2023-03-27T01:03:49.351Z,12.16
2023-03-27T01:04:13.078Z,12.21
2023-03-27T01:04:37.309Z,12.20
2023-03-27T01:04:59.951Z,12.22
2023-03-27T01:05:23.166Z,12.21
2023-03-27T01:05:47.449Z,12.23
2023-03-27T01:06:14.158Z,12.19
2023-03-27T01:06:37.233Z,12.19
2023-03-27T01:07:00.184Z,12.12
2023-03-27T01:07:25.040Z,12.17
2023-03-27T01:08:00.386Z,12.15
2023-03-27T01:08:24.513Z,12.15
2023-03-27T01:08:48.165Z,12.15
2023-03-27T01:09:09.844Z,12.03
2023-03-27T01:09:31.712Z,12.13
2023-03-27T01:09:54.575Z,12.13
2023-03-27T01:10:18.606Z,12.03
2023-03-27T01:10:52.318Z,12.09
2023-03-27T01:11:26.613Z,12.04
2023-03-27T01:12:04.406Z,12.05
2023-03-27T01:12:44.449Z,12.07
2023-03-27T01:13:23.799Z,12.05
2023-03-27T01:14:14.349Z,12.09
2023-03-27T01:14:44.086Z,12.07
2023-03-27T01:15:17.594Z,11.96
2023-03-27T01:15:47.553Z,12.02
2023-03-27T01:16:16.271Z,12.03
2023-03-27T01:16:47.915Z,12.05
2023-03-27T01:17:25.963Z,12.09
2023-03-27T01:18:11.783Z,12.09
2023-03-27T01:18:41.604Z,12.05
2023-03-27T01:19:28.102Z,12.08
2023-03-27T01:20:27.320Z,12.05
2023-03-27T01:21:19.770Z,11.99
2023-03-27T01:22:21.879Z,12.00
2023-03-27T01:23:00.790Z,12.00
2023-03-27T01:23:59.052Z,12.02
2023-03-27T01:24:57.826Z,12.04
2023-03-27T01:25:54.735Z,12.04
2023-03-27T01:26:57.483Z,12.02
2023-03-27T01:27:25.789Z,11.98
2023-03-27T01:28:10.806Z,12.03
2023-03-27T01:28:46.572Z,12.02
2023-03-27T01:29:15.248Z,11.98
2023-03-27T01:30:05.625Z,11.91
2023-03-27T01:30:32.353Z,11.95
2023-03-27T01:31:01.365Z,11.95
2023-03-27T01:31:43.903Z,11.83
2023-03-27T01:32:33.671Z,11.92
2023-03-27T01:33:28.302Z,12.01
2023-03-27T01:34:29.656Z,12.02
2023-03-27T01:35:28.087Z,12.03
2023-03-27T01:36:35.257Z,12.01
2023-03-27T01:37:25.345Z,11.98
2023-03-27T01:38:06.300Z,11.98
2023-03-27T01:38:44.386Z,11.91
2023-03-27T01:39:31.114Z,11.89
2023-03-27T01:39:59.867Z,11.72
2023-03-27T01:40:26.891Z,11.90
2023-03-27T01:40:55.131Z,11.86
2023-03-27T01:41:26.888Z,11.84
2023-03-27T01:41:54.476Z,11.93
2023-03-27T01:42:22.475Z,11.88
2023-03-27T01:42:52.415Z,11.86
2023-03-27T01:43:18.913Z,11.82
2023-03-27T01:43:50.270Z,11.80
2023-03-27T01:44:16.584Z,11.76
2023-03-27T01:44:47.530Z,11.78
2023-03-27T01:45:17.897Z,11.79
2023-03-27T01:45:45.008Z,11.75
2023-03-27T01:46:09.710Z,11.77
2023-03-27T01:46:35.910Z,11.79
2023-03-27T01:47:04.400Z,11.66
2023-03-27T01:47:39.496Z,11.69
2023-03-27T01:48:08.880Z,11.72
2023-03-27T01:48:34.308Z,11.70
2023-03-27T01:49:00.778Z,11.72
2023-03-27T01:49:28.012Z,11.73
2023-03-27T01:49:55.151Z,11.76
2023-03-27T01:50:22.931Z,11.76
2023-03-27T01:50:48.695Z,11.61
2023-03-27T01:51:15.686Z,11.74
2023-03-27T01:51:40.504Z,11.75
2023-03-27T01:52:08.066Z,11.77
2023-03-27T01:52:33.954Z,11.62
2023-03-27T01:53:01.316Z,11.69
2023-03-27T01:53:28.629Z,11.72
2023-03-27T01:53:54.997Z,11.75
2023-03-27T01:54:21.826Z,11.74
2023-03-27T01:54:50.260Z,11.72
2023-03-27T01:55:19.050Z,11.74
2023-03-27T01:55:45.840Z,11.77
2023-03-27T01:56:13.399Z,11.79
2023-03-27T01:56:39.288Z,11.61
2023-03-27T01:57:08.207Z,11.80
2023-03-27T01:57:36.354Z,11.81
2023-03-27T01:58:15.213Z,11.80
2023-03-27T01:58:46.253Z,11.80
2023-03-27T01:59:12.930Z,11.82
2023-03-27T01:59:40.360Z,11.82
2023-03-27T02:00:18.709Z,11.83
2023-03-27T02:00:52.212Z,11.83
2023-03-27T02:01:22.240Z,11.79
2023-03-27T02:01:48.597Z,11.80
2023-03-27T02:02:17.482Z,11.79
2023-03-27T02:02:41.894Z,11.72
2023-03-27T02:03:09.770Z,11.78
2023-03-27T02:03:35.860Z,11.70
2023-03-27T02:04:02.839Z,11.76
2023-03-27T02:04:28.953Z,11.77
2023-03-27T02:04:55.514Z,11.75
2023-03-27T02:05:21.198Z,11.71
2023-03-27T02:05:49.026Z,11.69
2023-03-27T02:06:17.671Z,11.70
2023-03-27T02:06:43.671Z,11.69
2023-03-27T02:07:11.126Z,11.68
2023-03-27T02:07:39.382Z,11.69
2023-03-27T02:08:09.788Z,11.72
2023-03-27T02:08:37.607Z,11.72
2023-03-27T02:09:19.298Z,11.72
2023-03-27T02:09:44.739Z,11.63
2023-03-27T02:10:13.754Z,11.69
2023-03-27T02:10:42.050Z,11.66
2023-03-27T02:11:10.130Z,11.65
2023-03-27T02:11:36.926Z,11.61
2023-03-27T02:12:10.145Z,11.63
2023-03-27T02:12:34.179Z,11.59
2023-03-27T02:13:00.894Z,11.58
2023-03-27T02:13:27.261Z,11.58
2023-03-27T02:13:54.207Z,11.63
2023-03-27T02:14:20.556Z,11.59
2023-03-27T02:14:49.616Z,11.66
2023-03-27T02:15:22.621Z,11.66
2023-03-27T02:15:49.301Z,11.60
2023-03-27T02:16:16.628Z,11.55
2023-03-27T02:16:46.263Z,11.47
2023-03-27T02:17:12.922Z,11.57
2023-03-27T02:17:38.590Z,11.61
2023-03-27T02:18:04.830Z,11.60
2023-03-27T02:18:37.281Z,11.59
2023-03-27T02:19:03.006Z,11.62
2023-03-27T02:19:30.126Z,11.55
2023-03-27T02:19:56.834Z,11.59
2023-03-27T02:20:21.198Z,11.63
2023-03-27T02:20:42.877Z,11.65
2023-03-27T02:21:06.098Z,11.69
2023-03-27T02:21:27.942Z,11.69
2023-03-27T02:21:53.377Z,11.67
2023-03-27T02:22:17.205Z,11.71
2023-03-27T02:22:43.761Z,11.68
2023-03-27T02:23:06.388Z,11.68
2023-03-27T02:23:30.853Z,11.66
2023-03-27T02:23:53.048Z,11.68
2023-03-27T02:24:16.706Z,11.69
2023-03-27T02:24:38.918Z,11.67
2023-03-27T02:25:01.507Z,11.66
2023-03-27T02:25:28.750Z,11.61
2023-03-27T02:25:51.913Z,11.64
2023-03-27T02:26:14.979Z,11.60
2023-03-27T02:26:37.819Z,11.61
2023-03-27T02:27:09.158Z,11.65
2023-03-27T02:27:39.252Z,11.68
2023-03-27T02:28:30.918Z,11.57
2023-03-27T02:29:26.980Z,11.62
2023-03-27T02:30:00.066Z,11.66
2023-03-27T02:30:28.035Z,11.66
2023-03-27T02:31:06.328Z,11.68
2023-03-27T02:31:58.213Z,11.60
2023-03-27T02:32:33.866Z,11.59
2023-03-27T02:33:03.543Z,11.58
2023-03-27T02:33:35.369Z,11.59
2023-03-27T02:34:18.506Z,11.58
2023-03-27T02:34:52.812Z,11.57
2023-03-27T02:35:30.839Z,11.56
2023-03-27T02:35:58.562Z,11.59
2023-03-27T02:36:35.528Z,11.59
2023-03-27T02:37:05.138Z,11.56
2023-03-27T02:37:57.142Z,11.57
2023-03-27T02:38:46.426Z,11.58
2023-03-27T02:39:14.468Z,11.57
2023-03-27T02:39:44.556Z,11.53
2023-03-27T02:40:14.033Z,11.55
2023-03-27T02:40:48.373Z,11.56
2023-03-27T02:41:35.381Z,11.56
2023-03-27T02:42:37.940Z,11.44
2023-03-27T02:43:07.306Z,11.50
2023-03-27T02:43:34.190Z,11.53
2023-03-27T02:44:09.812Z,11.52
2023-03-27T02:44:51.420Z,11.50
2023-03-27T02:45:21.240Z,11.46
2023-03-27T02:45:51.578Z,11.45
2023-03-27T02:46:20.522Z,11.48
2023-03-27T02:46:47.797Z,11.46
2023-03-27T02:47:14.837Z,11.45
2023-03-27T02:47:39.966Z,11.47
2023-03-27T02:48:07.518Z,11.46
2023-03-27T02:48:35.258Z,11.44
2023-03-27T02:49:00.914Z,11.45
2023-03-27T02:49:29.801Z,11.42
2023-03-27T02:49:56.400Z,11.44
2023-03-27T02:50:23.539Z,11.45
2023-03-27T02:50:51.083Z,11.44
2023-03-27T02:51:17.669Z,11.44
2023-03-27T02:51:45.875Z,11.45
2023-03-27T02:52:13.053Z,11.47
2023-03-27T02:52:40.208Z,11.46
2023-03-27T02:53:04.992Z,11.47
2023-03-27T02:53:30.116Z,11.47
2023-03-27T02:53:58.399Z,11.49
2023-03-27T02:54:25.461Z,11.48
2023-03-27T02:54:52.409Z,11.49
2023-03-27T02:55:20.039Z,11.50
2023-03-27T02:55:47.758Z,11.48
2023-03-27T02:56:13.516Z,11.43
2023-03-27T02:56:40.539Z,11.44
2023-03-27T02:57:05.867Z,11.44
2023-03-27T02:57:52.392Z,11.42
2023-03-27T02:58:21.299Z,11.45
2023-03-27T02:59:01.064Z,11.43
2023-03-27T02:59:31.358Z,11.42
2023-03-27T02:59:57.067Z,11.35
2023-03-27T03:00:26.101Z,11.37
2023-03-27T03:01:10.633Z,11.37
2023-03-27T03:01:46.821Z,11.37
2023-03-27T03:02:16.389Z,11.39
2023-03-27T03:02:58.864Z,11.38
2023-03-27T03:03:27.729Z,11.39
2023-03-27T03:03:59.995Z,11.37
2023-03-27T03:04:57.701Z,11.34
2023-03-27T03:05:32.595Z,11.30
2023-03-27T03:05:54.454Z,11.32
2023-03-27T03:06:16.116Z,11.31
2023-03-27T03:06:42.074Z,11.26
2023-03-27T03:07:06.346Z,11.31
2023-03-27T03:07:28.452Z,11.36
2023-03-27T03:07:51.039Z,11.37
2023-03-27T03:08:14.709Z,11.38
2023-03-27T03:08:39.096Z,11.39
2023-03-27T03:09:05.913Z,11.37
2023-03-27T03:09:32.080Z,11.38
2023-03-27T03:09:53.841Z,11.41
2023-03-27T03:10:16.620Z,11.42
2023-03-27T03:10:44.832Z,11.42
2023-03-27T03:11:11.410Z,11.47
2023-03-27T03:11:36.792Z,11.50
2023-03-27T03:11:59.298Z,11.46
2023-03-27T03:12:21.527Z,11.51
2023-03-27T03:12:44.305Z,11.51
2023-03-27T03:13:06.001Z,11.50
2023-03-27T03:13:28.651Z,11.47
2023-03-27T03:13:51.258Z,11.49
2023-03-27T03:14:14.151Z,11.49
2023-03-27T03:14:40.096Z,11.49
2023-03-27T03:15:01.692Z,11.48
2023-03-27T03:15:25.267Z,11.45
2023-03-27T03:15:47.909Z,11.45
2023-03-27T03:16:12.599Z,11.47
2023-03-27T03:16:34.966Z,11.50
2023-03-27T03:16:57.574Z,11.47
2023-03-27T03:17:19.249Z,11.47
2023-03-27T03:17:41.012Z,11.46
2023-03-27T03:18:03.763Z,11.43
2023-03-27T03:18:26.547Z,11.40
2023-03-27T03:18:48.165Z,11.37
2023-03-27T03:19:09.804Z,11.38
2023-03-27T03:19:32.431Z,11.36
2023-03-27T03:19:55.364Z,11.40
2023-03-27T03:20:17.171Z,11.39
2023-03-27T03:20:39.678Z,11.34
2023-03-27T03:21:01.366Z,11.31
2023-03-27T03:21:25.458Z,11.39
2023-03-27T03:21:49.400Z,11.36
2023-03-27T03:22:11.378Z,11.38
2023-03-27T03:22:33.897Z,11.40
2023-03-27T03:22:57.055Z,11.42
2023-03-27T03:23:18.645Z,11.45
2023-03-27T03:23:40.846Z,11.42
2023-03-27T03:24:03.454Z,11.25
2023-03-27T03:24:26.155Z,11.42
2023-03-27T03:24:48.225Z,11.43
2023-03-27T03:25:12.320Z,11.40
2023-03-27T03:25:34.221Z,11.26
2023-03-27T03:25:58.137Z,11.44
2023-03-27T03:26:27.290Z,11.44
2023-03-27T03:26:50.164Z,11.43
2023-03-27T03:27:14.344Z,11.46
2023-03-27T03:27:44.128Z,11.41
2023-03-27T03:28:08.247Z,11.42
2023-03-27T03:28:30.922Z,11.41
2023-03-27T03:29:00.553Z,11.39
2023-03-27T03:29:35.338Z,11.38
2023-03-27T03:30:07.501Z,11.41
2023-03-27T03:30:37.366Z,11.40
2023-03-27T03:31:04.779Z,11.45
2023-03-27T03:31:26.559Z,11.45
2023-03-27T03:31:49.976Z,11.46
2023-03-27T03:32:11.683Z,11.41
2023-03-27T03:32:34.030Z,11.39
2023-03-27T03:33:00.632Z,11.32
2023-03-27T03:33:22.488Z,11.39
2023-03-27T03:33:44.694Z,11.38
2023-03-27T03:34:06.562Z,11.38
2023-03-27T03:34:30.294Z,11.37
2023-03-27T03:34:53.083Z,11.37
2023-03-27T03:35:15.323Z,11.34
2023-03-27T03:35:37.155Z,11.36
2023-03-27T03:36:07.218Z,11.36
2023-03-27T03:36:31.622Z,11.34
2023-03-27T03:36:55.118Z,11.34
2023-03-27T03:37:28.347Z,11.34
2023-03-27T03:37:53.749Z,11.33
2023-03-27T03:38:24.874Z,11.36
2023-03-27T03:38:46.647Z,11.34
2023-03-27T03:39:11.327Z,11.31
2023-03-27T03:39:33.017Z,11.20
2023-03-27T03:39:54.745Z,11.13
2023-03-27T03:40:17.055Z,11.23
2023-03-27T03:40:42.678Z,11.23
2023-03-27T03:41:06.427Z,11.25
2023-03-27T03:41:28.245Z,11.19
2023-03-27T03:41:55.487Z,11.15
2023-03-27T03:42:22.957Z,11.25
2023-03-27T03:42:48.819Z,11.12
2023-03-27T03:43:11.515Z,11.23
2023-03-27T03:43:34.432Z,11.23
2023-03-27T03:43:56.377Z,11.24
2023-03-27T03:44:18.154Z,11.25
2023-03-27T03:44:39.731Z,11.26
2023-03-27T03:45:13.401Z,11.27
2023-03-27T03:45:35.261Z,11.33
2023-03-27T03:45:56.982Z,11.34
2023-03-27T03:46:21.110Z,11.34
2023-03-27T03:46:42.801Z,11.35
2023-03-27T03:47:04.961Z,11.33
2023-03-27T03:47:26.896Z,11.32
2023-03-27T03:47:49.613Z,11.32
2023-03-27T03:48:11.461Z,11.26
2023-03-27T03:48:33.098Z,11.28
2023-03-27T03:48:54.931Z,11.30
2023-03-27T03:49:17.563Z,11.29
2023-03-27T03:49:39.250Z,11.30
2023-03-27T03:50:00.863Z,11.31
2023-03-27T03:50:26.144Z,11.33
2023-03-27T03:50:49.806Z,11.29
2023-03-27T03:51:11.508Z,11.27
2023-03-27T03:51:33.949Z,11.29
2023-03-27T03:52:04.465Z,11.28
2023-03-27T03:52:28.556Z,11.27
2023-03-27T03:52:50.333Z,11.23
2023-03-27T03:53:12.168Z,11.18
2023-03-27T03:53:33.951Z,11.23
2023-03-27T03:53:56.784Z,11.23
2023-03-27T03:54:18.805Z,11.23
2023-03-27T03:54:40.483Z,11.23
2023-03-27T03:55:07.564Z,11.25
2023-03-27T03:55:30.501Z,11.25
2023-03-27T03:55:53.120Z,11.27
2023-03-27T03:56:16.164Z,11.25
2023-03-27T03:56:41.521Z,11.23
2023-03-27T03:57:03.565Z,11.22
2023-03-27T03:57:26.929Z,11.23
2023-03-27T03:57:59.809Z,11.25
2023-03-27T03:58:34.595Z,11.24
2023-03-27T03:58:59.235Z,11.20
2023-03-27T03:59:21.507Z,11.22
2023-03-27T04:00:12.381Z,11.24
2023-03-27T04:00:44.587Z,11.22
2023-03-27T04:01:20.626Z,11.23
2023-03-27T04:01:46.734Z,11.18
2023-03-27T04:02:12.066Z,11.17
2023-03-27T04:02:34.862Z,11.16
2023-03-27T04:03:06.169Z,11.15
2023-03-27T04:03:32.297Z,11.15
2023-03-27T04:03:54.338Z,11.13
2023-03-27T04:04:16.412Z,11.14
2023-03-27T04:04:56.965Z,11.14
2023-03-27T04:05:21.421Z,11.08
2023-03-27T04:05:46.640Z,11.07
2023-03-27T04:06:10.799Z,11.12
2023-03-27T04:06:32.466Z,11.05
2023-03-27T04:06:58.352Z,11.12
2023-03-27T04:07:31.454Z,11.14
2023-03-27T04:08:11.204Z,11.14
2023-03-27T04:08:47.731Z,11.14
2023-03-27T04:09:29.664Z,11.15
2023-03-27T04:10:00.492Z,11.12
2023-03-27T04:10:23.790Z,11.10
2023-03-27T04:10:45.998Z,11.11
2023-03-27T04:11:17.404Z,11.13
2023-03-27T04:11:57.438Z,11.12
2023-03-27T04:12:35.784Z,11.14
2023-03-27T04:13:01.757Z,11.08
2023-03-27T04:13:32.024Z,11.12
2023-03-27T04:14:01.023Z,11.06
2023-03-27T04:14:31.823Z,11.05
2023-03-27T04:14:57.334Z,11.05
2023-03-27T04:15:43.589Z,11.06
2023-03-27T04:16:16.953Z,10.95
2023-03-27T04:16:43.584Z,10.99
2023-03-27T04:17:15.634Z,10.98
2023-03-27T04:17:38.570Z,11.03
2023-03-27T04:18:04.627Z,11.05
2023-03-27T04:18:30.320Z,11.02
2023-03-27T04:18:55.166Z,11.03
2023-03-27T04:19:20.058Z,11.03
2023-03-27T04:19:48.502Z,11.00
2023-03-27T04:20:12.716Z,11.00
2023-03-27T04:20:34.793Z,10.99
2023-03-27T04:20:58.985Z,11.02
2023-03-27T04:21:21.968Z,11.01
2023-03-27T04:21:44.101Z,11.02
2023-03-27T04:22:06.931Z,11.01
2023-03-27T04:22:30.866Z,11.04
2023-03-27T04:22:55.089Z,11.01
2023-03-27T04:23:18.437Z,10.94
2023-03-27T04:23:40.661Z,10.99
2023-03-27T04:24:08.297Z,10.99
2023-03-27T04:24:44.645Z,11.01
2023-03-27T04:25:08.242Z,10.96
2023-03-27T04:25:30.230Z,10.99
2023-03-27T04:25:53.649Z,10.99
2023-03-27T04:26:26.358Z,11.02
2023-03-27T04:27:21.245Z,10.98
2023-03-27T04:28:06.974Z,10.99
2023-03-27T04:28:34.449Z,10.72
2023-03-27T04:29:10.804Z,10.94
2023-03-27T04:29:56.342Z,10.93
2023-03-27T04:30:44.876Z,10.86
2023-03-27T04:31:26.770Z,10.87
2023-03-27T04:32:06.966Z,10.90
2023-03-27T04:32:34.523Z,10.90
2023-03-27T04:33:19.133Z,10.89
2023-03-27T04:33:51.817Z,10.91
2023-03-27T04:34:42.057Z,10.91
2023-03-27T04:35:25.138Z,10.91
2023-03-27T04:36:07.833Z,10.92
2023-03-27T04:36:51.255Z,10.82
2023-03-27T04:37:18.448Z,10.89
2023-03-27T04:38:05.474Z,10.90
2023-03-27T04:38:39.099Z,10.79
2023-03-27T04:39:02.364Z,10.88
2023-03-27T04:39:26.433Z,10.89
2023-03-27T04:39:48.104Z,10.93
2023-03-27T04:40:14.046Z,10.91
2023-03-27T04:40:35.689Z,10.91
2023-03-27T04:40:57.842Z,10.92
2023-03-27T04:41:21.225Z,10.92
2023-03-27T04:41:49.138Z,10.90
2023-03-27T04:42:11.119Z,10.85
2023-03-27T04:42:33.412Z,10.88
2023-03-27T04:42:56.501Z,10.91
2023-03-27T04:43:18.269Z,10.85
2023-03-27T04:43:41.606Z,10.89
2023-03-27T04:44:03.412Z,10.89
2023-03-27T04:44:26.257Z,10.87
2023-03-27T04:44:48.040Z,10.85
2023-03-27T04:45:13.016Z,10.90
2023-03-27T04:45:36.968Z,10.89
2023-03-27T04:46:00.382Z,10.90
2023-03-27T04:46:22.350Z,10.90
2023-03-27T04:46:49.089Z,10.90
2023-03-27T04:47:12.263Z,10.87
2023-03-27T04:47:37.852Z,10.85
2023-03-27T04:48:00.328Z,10.84
2023-03-27T04:48:23.118Z,10.86
2023-03-27T04:48:49.122Z,10.86
2023-03-27T04:49:21.094Z,10.85
2023-03-27T04:49:59.223Z,10.83
2023-03-27T04:50:22.921Z,10.78
2023-03-27T04:50:49.196Z,10.77
2023-03-27T04:51:20.897Z,10.77
2023-03-27T04:51:43.197Z,10.76
2023-03-27T04:52:07.818Z,10.75
2023-03-27T04:52:29.606Z,10.78
2023-03-27T04:52:58.487Z,10.67
2023-03-27T04:53:21.278Z,10.74
2023-03-27T04:53:43.913Z,10.76
2023-03-27T04:54:07.341Z,10.77
2023-03-27T04:54:35.844Z,10.78
2023-03-27T04:54:58.926Z,10.78
2023-03-27T04:55:25.745Z,10.74
2023-03-27T04:55:51.188Z,10.78
2023-03-27T04:56:12.943Z,10.76
2023-03-27T04:56:36.721Z,10.74
2023-03-27T04:57:02.078Z,10.76
2023-03-27T04:57:27.665Z,10.77
2023-03-27T04:57:52.549Z,10.80
2023-03-27T04:58:16.569Z,10.80
2023-03-27T04:58:40.975Z,10.78
2023-03-27T04:59:06.677Z,10.75
2023-03-27T04:59:31.909Z,10.79
2023-03-27T05:00:16.981Z,10.82
2023-03-27T05:00:58.808Z,10.78
2023-03-27T05:01:41.613Z,10.83
2023-03-27T05:02:17.183Z,10.85
2023-03-27T05:02:47.707Z,10.82
2023-03-27T05:03:23.933Z,10.76
2023-03-27T05:03:56.914Z,10.76
2023-03-27T05:04:38.935Z,10.60
2023-03-27T05:05:13.949Z,10.75
2023-03-27T05:05:35.941Z,10.71
2023-03-27T05:06:00.211Z,10.72
2023-03-27T05:06:23.458Z,10.74
2023-03-27T05:06:45.824Z,10.71
2023-03-27T05:07:12.128Z,10.67
2023-03-27T05:07:34.218Z,10.71
2023-03-27T05:07:58.365Z,10.72
2023-03-27T05:08:21.441Z,10.69
2023-03-27T05:08:43.387Z,10.55
2023-03-27T05:09:14.249Z,10.73
2023-03-27T05:09:37.226Z,10.75
2023-03-27T05:09:59.881Z,10.70
2023-03-27T05:10:23.887Z,10.72
2023-03-27T05:10:47.040Z,10.77
2023-03-27T05:11:10.711Z,10.78
2023-03-27T05:11:36.650Z,10.77
2023-03-27T05:11:59.550Z,10.75
2023-03-27T05:12:21.938Z,10.80
2023-03-27T05:12:50.349Z,10.79
2023-03-27T05:13:13.144Z,10.78
2023-03-27T05:13:35.256Z,10.79
2023-03-27T05:13:58.917Z,10.79
2023-03-27T05:14:23.703Z,10.78
2023-03-27T05:14:48.347Z,10.76
2023-03-27T05:15:26.388Z,10.79
2023-03-27T05:15:49.632Z,10.78
2023-03-27T05:16:14.476Z,10.78
2023-03-27T05:16:40.431Z,10.76
2023-03-27T05:17:03.116Z,10.78
2023-03-27T05:17:25.947Z,10.78
2023-03-27T05:17:53.105Z,10.80
2023-03-27T05:18:17.728Z,10.77
2023-03-27T05:18:45.128Z,10.82
2023-03-27T05:19:07.016Z,10.87
2023-03-27T05:19:35.212Z,10.84
2023-03-27T05:19:58.153Z,10.81
2023-03-27T05:20:21.760Z,10.61
2023-03-27T05:20:48.767Z,10.85
2023-03-27T05:21:12.006Z,10.80
2023-03-27T05:21:33.795Z,10.79
2023-03-27T05:21:55.432Z,10.78
2023-03-27T05:22:17.801Z,10.78
2023-03-27T05:22:47.442Z,10.73
2023-03-27T05:23:17.613Z,10.74
2023-03-27T05:23:39.551Z,10.75
2023-03-27T05:24:03.293Z,10.69
2023-03-27T05:24:25.374Z,10.70
2023-03-27T05:24:48.026Z,10.69
2023-03-27T05:25:11.953Z,10.69
2023-03-27T05:25:33.822Z,10.69
2023-03-27T05:25:59.279Z,10.68
2023-03-27T05:26:30.918Z,10.69
2023-03-27T05:26:53.262Z,10.69
2023-03-27T05:27:16.592Z,10.67
2023-03-27T05:27:46.943Z,10.69
2023-03-27T05:28:10.849Z,10.72
2023-03-27T05:28:32.660Z,10.73
2023-03-27T05:28:55.693Z,10.71
2023-03-27T05:29:17.333Z,10.73
2023-03-27T05:29:46.405Z,10.75
2023-03-27T05:30:10.048Z,10.64
2023-03-27T05:30:32.021Z,10.73
2023-03-27T05:31:12.378Z,10.76
2023-03-27T05:31:45.991Z,10.75
2023-03-27T05:32:27.774Z,10.73
2023-03-27T05:33:07.870Z,10.74
2023-03-27T05:33:29.614Z,10.73
2023-03-27T05:33:52.470Z,10.71
2023-03-27T05:34:15.711Z,10.70
2023-03-27T05:34:38.967Z,10.69
2023-03-27T05:35:05.667Z,10.67
2023-03-27T05:35:34.542Z,10.69
2023-03-27T05:35:58.739Z,10.72
2023-03-27T05:36:22.153Z,10.58
2023-03-27T05:36:43.833Z,10.69
2023-03-27T05:37:08.606Z,10.74
2023-03-27T05:37:47.813Z,10.74
2023-03-27T05:38:17.971Z,10.74
2023-03-27T05:39:04.157Z,10.76
2023-03-27T05:39:31.065Z,10.77
2023-03-27T05:39:52.847Z,10.78
2023-03-27T05:40:15.701Z,10.78
2023-03-27T05:40:39.257Z,10.76
2023-03-27T05:41:02.244Z,10.77
2023-03-27T05:41:25.500Z,10.75
2023-03-27T05:41:48.051Z,10.78
2023-03-27T05:42:17.868Z,10.78
2023-03-27T05:42:43.100Z,10.75
2023-03-27T05:43:06.819Z,10.81
2023-03-27T05:43:28.981Z,10.81
2023-03-27T05:43:51.642Z,10.81
2023-03-27T05:44:15.946Z,10.78
2023-03-27T05:44:39.736Z,10.77
2023-03-27T05:45:01.430Z,10.74
2023-03-27T05:45:24.201Z,10.77
2023-03-27T05:45:46.980Z,10.78
2023-03-27T05:46:08.830Z,10.79
2023-03-27T05:46:31.782Z,10.75
2023-03-27T05:47:02.097Z,10.79
2023-03-27T05:47:26.194Z,10.68
2023-03-27T05:47:50.460Z,10.80
2023-03-27T05:48:12.082Z,10.78
2023-03-27T05:48:38.500Z,10.83
2023-03-27T05:49:00.238Z,10.83
2023-03-27T05:49:22.200Z,10.83
2023-03-27T05:49:48.905Z,10.83
2023-03-27T05:50:12.900Z,10.82
2023-03-27T05:50:35.320Z,10.86
2023-03-27T05:50:59.626Z,10.86
2023-03-27T05:51:22.442Z,10.77
2023-03-27T05:51:47.191Z,10.87
2023-03-27T05:52:14.154Z,10.91